Time;durP1;ratioP1;P1;durP2;ratioP2;P2;SDS_P1;SDS_P2;PMS_P1;PMS_P2;Temp;Humidity;BMP_temperature;BMP_pressure;BME280_temperature;BME280_humidity;BME280_pressure;Samples;Min_cycle;Max_cycle;Signal;HPM_P1;HPM_P2
2023/01/01 00:02:01;;;;;;;34.10;24.23;;;13.50;99.90;;;;;;5098235;28;20035;-65
2023/01/01 00:04:27;;;;;;;31.27;22.02;;;13.40;99.90;;;;;;5088184;28;20055;-65
2023/01/01 00:06:53;;;;;;;33.80;19.88;;;13.40;99.90;;;;;;5091729;28;20027;-65
2023/01/01 00:12:03;;;;;;;28.98;16.35;;;13.40;99.90;;;;;;5096183;28;20115;-67
2023/01/01 00:14:29;;;;;;;20.35;13.68;;;13.40;99.90;;;;;;5084987;28;20103;-66
2023/01/01 00:16:54;;;;;;;21.35;13.23;;;13.40;99.90;;;;;;5097509;28;20027;-66
2023/01/01 00:19:20;;;;;;;21.52;11.20;;;13.30;99.90;;;;;;5088776;28;20103;-65
2023/01/01 00:21:46;;;;;;;18.55;9.27;;;13.30;99.90;;;;;;5088599;28;20029;-65
2023/01/01 00:24:12;;;;;;;13.68;8.18;;;13.40;99.90;;;;;;5089147;28;20060;-66
2023/01/01 00:26:38;;;;;;;21.00;12.38;;;13.40;99.90;;;;;;5072408;28;20118;-67
2023/01/01 00:29:04;;;;;;;23.13;13.15;;;13.50;99.90;;;;;;5091660;28;20024;-65
2023/01/01 00:31:30;;;;;;;16.52;9.43;;;13.70;99.90;;;;;;5073926;28;20446;-67
2023/01/01 00:33:57;;;;;;;10.38;6.97;;;13.70;99.90;;;;;;5090541;28;20408;-67
2023/01/01 00:36:25;;;;;;;16.23;8.73;;;13.70;99.90;;;;;;5088675;28;20103;-65
2023/01/01 00:38:51;;;;;;;7.03;4.85;;;13.70;99.90;;;;;;5090730;28;20572;-65
2023/01/01 00:41:17;;;;;;;9.57;5.03;;;13.70;99.90;;;;;;5091190;28;20043;-65
2023/01/01 00:43:42;;;;;;;7.07;4.85;;;13.70;99.90;;;;;;5091542;28;20039;-66
2023/01/01 00:46:09;;;;;;;7.13;4.43;;;13.70;99.90;;;;;;5092043;28;20035;-65
2023/01/01 00:48:34;;;;;;;7.68;5.13;;;13.70;99.90;;;;;;5092686;28;20483;-65
2023/01/01 00:51:01;;;;;;;7.05;4.53;;;13.70;99.90;;;;;;5093652;28;20039;-66
2023/01/01 00:53:26;;;;;;;8.27;4.75;;;13.60;99.90;;;;;;5086858;28;20032;-67
2023/01/01 00:55:52;;;;;;;7.38;4.72;;;13.60;99.90;;;;;;5092136;28;20739;-67
2023/01/01 00:58:18;;;;;;;8.52;4.72;;;13.50;99.90;;;;;;5073611;28;20027;-66
2023/01/01 01:00:44;;;;;;;8.02;4.38;;;13.50;99.90;;;;;;5091941;28;20492;-66
2023/01/01 01:03:26;;;;;;;8.57;5.53;;;13.40;99.90;;;;;;5091915;28;20029;-66
2023/01/01 01:05:53;;;;;;;7.78;4.80;;;13.40;99.90;;;;;;5088599;28;20131;-66
2023/01/01 01:08:19;;;;;;;9.18;5.65;;;13.40;99.90;;;;;;5092503;28;20418;-66
2023/01/01 01:10:44;;;;;;;8.30;5.60;;;13.30;99.90;;;;;;5062537;28;20078;-66
2023/01/01 01:13:10;;;;;;;10.85;6.40;;;13.30;99.90;;;;;;5091283;28;20081;-66
2023/01/01 01:15:37;;;;;;;14.77;9.48;;;13.20;99.90;;;;;;5091648;28;20073;-66
2023/01/01 01:18:02;;;;;;;12.13;7.80;;;13.00;99.90;;;;;;5091914;28;20035;-66
2023/01/01 01:20:28;;;;;;;15.73;11.73;;;13.00;99.90;;;;;;5092678;28;20087;-66
2023/01/01 01:22:54;;;;;;;13.18;8.52;;;12.90;99.90;;;;;;5090045;28;20530;-65
2023/01/01 01:25:20;;;;;;;20.52;13.30;;;12.80;99.90;;;;;;5091154;28;20081;-69
2023/01/01 01:27:45;;;;;;;41.63;22.10;;;12.90;99.90;;;;;;5088754;28;20480;-64
2023/01/01 01:30:11;;;;;;;31.02;17.58;;;12.90;99.90;;;;;;5092445;28;20131;-65
2023/01/01 01:32:37;;;;;;;20.20;12.90;;;12.70;99.90;;;;;;5091134;28;20111;-65
2023/01/01 01:35:03;;;;;;;21.63;13.40;;;12.60;99.90;;;;;;5092209;28;20073;-66
2023/01/01 01:37:28;;;;;;;31.35;18.45;;;12.40;99.90;;;;;;5091753;28;20028;-65
2023/01/01 01:39:54;;;;;;;31.48;17.60;;;12.30;99.90;;;;;;5090976;28;20056;-65
2023/01/01 01:42:21;;;;;;;27.42;14.90;;;12.10;99.90;;;;;;5090383;28;20031;-66
2023/01/01 01:45:01;;;;;;;28.52;16.50;;;12.00;99.90;;;;;;5078468;28;20035;-65
2023/01/01 01:47:39;;;;;;;25.05;16.20;;;11.80;99.90;;;;;;5092070;28;20020;-65
2023/01/01 01:50:18;;;;;;;27.33;17.00;;;11.60;99.90;;;;;;5091605;28;20103;-65
2023/01/01 01:52:58;;;;;;;29.00;16.10;;;11.50;99.90;;;;;;5090517;28;20130;-65
2023/01/01 01:55:25;;;;;;;;;;;11.40;99.90;;;;;;5092057;28;20468;-65
2023/01/01 01:57:51;;;;;;;25.58;16.20;;;11.20;99.90;;;;;;5089967;28;19908;-65
2023/01/01 02:00:16;;;;;;;26.05;15.85;;;11.10;99.90;;;;;;5086077;28;20429;-65
2023/01/01 02:02:57;;;;;;;25.70;16.65;;;11.00;99.90;;;;;;5090393;28;20584;-66
2023/01/01 02:05:23;;;;;;;25.90;16.02;;;10.90;99.90;;;;;;5091406;28;20032;-65
2023/01/01 02:07:50;;;;;;;25.30;16.50;;;10.80;99.90;;;;;;5090479;28;20488;-65
2023/01/01 02:10:16;;;;;;;28.25;19.30;;;10.60;99.90;;;;;;5091362;28;20077;-65
2023/01/01 02:12:41;;;;;;;27.17;18.40;;;10.50;99.90;;;;;;5083886;28;20024;-65
2023/01/01 02:15:08;;;;;;;33.95;20.60;;;10.50;99.90;;;;;;5088152;28;20108;-65
2023/01/01 02:17:45;;;;;;;25.38;16.45;;;10.50;99.90;;;;;;5073020;28;20466;-67
2023/01/01 02:20:29;;;;;;;20.45;11.63;;;10.50;99.90;;;;;;5090508;28;20030;-65
2023/01/01 02:23:13;;;;;;;16.58;9.18;;;10.70;99.90;;;;;;5089835;28;20056;-65
2023/01/01 02:25:56;;;;;;;14.38;8.50;;;10.90;99.90;;;;;;5090330;28;20095;-66
2023/01/01 02:28:40;;;;;;;11.23;6.22;;;11.10;99.90;;;;;;5077218;28;20028;-66
2023/01/01 02:31:09;;;;;;;9.40;5.70;;;11.40;99.90;;;;;;5091222;28;20432;-66
2023/01/01 02:33:35;;;;;;;7.40;5.07;;;11.70;99.90;;;;;;5086280;28;20032;-67
2023/01/01 02:36:03;;;;;;;8.35;6.03;;;11.90;99.90;;;;;;5088222;28;20032;-66
2023/01/01 02:38:33;;;;;;;10.93;6.22;;;11.90;99.90;;;;;;5090686;28;20135;-65
2023/01/01 02:41:07;;;;;;;11.63;7.22;;;12.10;99.90;;;;;;5091288;28;20189;-66
2023/01/01 02:43:33;;;;;;;12.18;6.97;;;12.20;99.90;;;;;;5090158;28;20050;-68
2023/01/01 02:46:04;;;;;;;11.90;6.80;;;12.30;99.90;;;;;;5090893;28;20457;-66
2023/01/01 02:48:42;;;;;;;13.13;6.68;;;12.50;99.90;;;;;;5090514;28;20020;-66
2023/01/01 02:51:33;;;;;;;14.23;7.20;;;12.60;99.90;;;;;;5083634;28;20041;-66
2023/01/01 02:54:38;;;;;;;9.43;6.85;;;12.70;99.90;;;;;;5088341;28;20043;-65
2023/01/01 02:57:33;;;;;;;11.32;7.15;;;12.70;99.90;;;;;;5090775;28;20461;-66
2023/01/01 03:03:25;;;;;;;12.77;8.18;;;12.70;99.90;;;;;;5089792;28;20039;-65
2023/01/01 03:06:23;;;;;;;11.23;7.05;;;12.70;99.90;;;;;;5086627;28;20024;-66
2023/01/01 03:08:59;;;;;;;10.32;7.13;;;12.60;99.90;;;;;;5064214;28;20475;-65
2023/01/01 03:11:31;;;;;;;13.30;7.72;;;12.60;99.90;;;;;;5084442;28;20020;-66
2023/01/01 03:14:19;;;;;;;10.13;6.20;;;12.60;99.90;;;;;;5089658;28;20107;-66
2023/01/01 03:16:56;;;;;;;9.63;5.90;;;12.60;99.90;;;;;;5080463;28;20042;-65
2023/01/01 03:19:26;;;;;;;10.10;6.68;;;12.70;99.90;;;;;;5083316;28;20114;-65
2023/01/01 03:22:00;;;;;;;11.63;6.25;;;12.70;99.90;;;;;;5071392;28;20020;-67
2023/01/01 03:24:49;;;;;;;9.88;6.35;;;12.70;99.90;;;;;;5089015;28;20097;-65
2023/01/01 03:27:20;;;;;;;9.77;6.18;;;12.70;99.90;;;;;;5081973;28;20036;-65
2023/01/01 03:29:49;;;;;;;8.80;6.03;;;12.70;99.90;;;;;;5089299;28;20191;-66
2023/01/01 03:32:58;;;;;;;10.32;6.63;;;12.70;99.90;;;;;;5090215;28;20024;-66
2023/01/01 03:35:12;;;;;;;10.55;5.57;;;12.60;99.90;;;;;;5090049;28;20469;-66
2023/01/01 03:37:39;;;;;;;8.43;6.10;;;12.50;99.90;;;;;;5089474;28;20052;-66
2023/01/01 03:40:07;;;;;;;10.20;6.25;;;12.50;99.90;;;;;;5090531;28;20027;-66
2023/01/01 03:42:42;;;;;;;8.10;5.80;;;12.30;99.90;;;;;;5078759;28;20039;-68
2023/01/01 03:45:30;;;;;;;9.57;5.50;;;12.30;99.90;;;;;;5090041;28;20479;-66
2023/01/01 03:47:56;;;;;;;6.18;4.38;;;12.30;99.90;;;;;;5093693;28;20020;-66
2023/01/01 03:50:41;;;;;;;8.45;5.15;;;12.30;99.90;;;;;;5094073;28;20441;-66
2023/01/01 03:53:35;;;;;;;10.32;5.32;;;12.30;99.90;;;;;;5093950;28;20032;-66
2023/01/01 03:56:16;;;;;;;7.45;4.95;;;12.20;99.90;;;;;;5091855;28;20028;-66
2023/01/01 03:59:00;;;;;;;12.05;5.28;;;12.10;99.90;;;;;;5089526;28;20028;-67
2023/01/01 04:01:36;;;;;;;8.90;5.07;;;12.10;99.90;;;;;;5093758;28;20024;-66
2023/01/01 04:04:03;;;;;;;7.53;5.20;;;12.00;99.90;;;;;;5093378;28;20032;-66
2023/01/01 04:06:31;;;;;;;8.05;5.35;;;11.90;99.90;;;;;;5093764;28;20043;-66
2023/01/01 04:08:59;;;;;;;9.10;5.07;;;11.90;99.90;;;;;;5092978;28;20042;-66
2023/01/01 04:14:13;;;;;;;8.27;4.97;;;11.80;99.90;;;;;;5093428;28;20073;-66
2023/01/01 04:16:38;;;;;;;8.45;4.93;;;11.80;99.90;;;;;;5083054;28;20032;-66
2023/01/01 04:19:05;;;;;;;9.60;5.78;;;11.80;99.90;;;;;;5093233;28;20028;-66
2023/01/01 04:21:32;;;;;;;8.52;5.28;;;11.70;99.90;;;;;;5093287;28;20028;-68
2023/01/01 04:23:57;;;;;;;7.05;5.00;;;11.80;99.90;;;;;;5091884;28;20044;-66
2023/01/01 04:26:23;;;;;;;9.00;4.90;;;11.90;99.90;;;;;;5093597;28;20032;-66
2023/01/01 04:28:48;;;;;;;10.38;4.43;;;12.00;99.90;;;;;;5084710;28;20107;-66
2023/01/01 04:31:14;;;;;;;7.13;4.20;;;12.00;99.90;;;;;;5093009;28;20016;-66
2023/01/01 04:33:40;;;;;;;8.85;4.40;;;12.10;99.90;;;;;;5090835;28;20072;-66
2023/01/01 04:36:08;;;;;;;9.52;5.15;;;12.20;99.90;;;;;;5093309;28;20028;-66
2023/01/01 04:38:35;;;;;;;7.65;4.60;;;12.20;99.90;;;;;;5092437;28;20028;-68
2023/01/01 04:41:01;;;;;;;11.70;4.85;;;12.30;99.90;;;;;;5093214;28;20173;-66
2023/01/01 04:43:28;;;;;;;14.38;4.13;;;12.40;99.90;;;;;;5092751;28;20024;-66
2023/01/01 04:46:02;;;;;;;6.20;3.95;;;12.50;99.90;;;;;;5092426;28;20024;-66
2023/01/01 04:48:29;;;;;;;6.97;4.35;;;12.50;99.90;;;;;;5092561;28;20031;-66
2023/01/01 04:51:00;;;;;;;7.70;4.00;;;12.60;99.90;;;;;;5086679;28;20476;-66
2023/01/01 04:53:29;;;;;;;4.82;3.53;;;12.60;99.90;;;;;;5092429;28;20036;-66
2023/01/01 04:55:55;;;;;;;5.18;3.53;;;12.70;99.90;;;;;;5092359;28;20039;-66
2023/01/01 04:58:20;;;;;;;9.15;3.38;;;12.70;99.90;;;;;;5091220;28;20024;-66
2023/01/01 05:00:50;;;;;;;4.25;3.15;;;12.70;99.90;;;;;;5092259;28;20481;-66
2023/01/01 05:03:16;;;;;;;6.38;3.92;;;12.70;99.90;;;;;;5092160;28;20035;-66
2023/01/01 05:05:42;;;;;;;7.25;3.45;;;12.80;99.90;;;;;;5092373;28;20432;-66
2023/01/01 05:08:08;;;;;;;7.35;3.30;;;12.70;99.90;;;;;;5091732;28;20024;-66
2023/01/01 05:10:33;;;;;;;4.32;2.95;;;12.90;99.90;;;;;;5092466;28;20023;-67
2023/01/01 05:12:59;;;;;;;5.47;3.58;;;12.90;99.90;;;;;;5085964;28;20516;-66
2023/01/01 05:15:24;;;;;;;6.50;3.53;;;13.00;99.90;;;;;;5087402;28;20028;-65
2023/01/01 05:17:50;;;;;;;5.78;3.67;;;13.00;99.90;;;;;;5087398;28;20020;-66
2023/01/01 05:20:15;;;;;;;5.63;3.50;;;13.00;99.90;;;;;;5092324;28;20099;-66
2023/01/01 05:22:41;;;;;;;5.65;3.25;;;13.00;99.90;;;;;;5090766;28;20044;-67
2023/01/01 05:25:07;;;;;;;6.90;3.67;;;13.00;99.90;;;;;;5088772;28;20078;-66
2023/01/01 05:27:32;;;;;;;10.80;4.70;;;13.00;99.90;;;;;;5092140;28;20024;-67
2023/01/01 05:29:58;;;;;;;6.90;3.58;;;12.90;99.90;;;;;;5091734;28;20081;-66
2023/01/01 05:32:24;;;;;;;8.77;4.53;;;12.90;99.90;;;;;;5092015;28;20113;-66
2023/01/01 05:34:50;;;;;;;6.88;3.85;;;12.80;99.90;;;;;;5090931;28;20868;-66
2023/01/01 05:37:16;;;;;;;6.55;3.88;;;12.80;99.90;;;;;;5092133;28;20020;-66
2023/01/01 05:39:41;;;;;;;7.20;4.05;;;12.80;99.90;;;;;;5090975;28;20034;-66
2023/01/01 05:42:07;;;;;;;5.85;3.90;;;12.80;99.90;;;;;;5091404;28;20400;-66
2023/01/01 05:44:32;;;;;;;7.75;4.18;;;12.80;99.90;;;;;;5091388;28;20028;-67
2023/01/01 05:46:58;;;;;;;8.00;4.22;;;12.70;99.90;;;;;;5091377;28;20419;-65
2023/01/01 05:49:23;;;;;;;5.45;3.70;;;12.60;99.90;;;;;;5090670;28;20024;-66
2023/01/01 05:51:49;;;;;;;4.82;3.40;;;12.70;99.90;;;;;;5091078;28;20031;-65
2023/01/01 05:54:14;;;;;;;7.20;4.07;;;12.60;99.90;;;;;;5091273;28;20384;-66
2023/01/01 05:56:40;;;;;;;6.13;3.58;;;12.60;99.90;;;;;;5091211;28;20027;-68
2023/01/01 05:59:06;;;;;;;7.93;3.45;;;12.60;99.90;;;;;;5085540;28;20028;-65
2023/01/01 06:01:32;;;;;;;5.10;3.40;;;12.50;99.90;;;;;;5092008;28;20024;-68
2023/01/01 06:03:58;;;;;;;4.80;3.67;;;12.50;99.90;;;;;;5090586;28;20031;-66
2023/01/01 06:06:27;;;;;;;6.05;3.42;;;12.40;99.90;;;;;;5091757;28;20102;-65
2023/01/01 06:09:01;;;;;;;5.93;3.55;;;12.40;99.90;;;;;;5090136;28;20468;-66
2023/01/01 06:11:28;;;;;;;6.90;3.78;;;12.30;99.90;;;;;;5085874;28;20025;-66
2023/01/01 06:13:55;;;;;;;4.95;3.50;;;12.20;99.90;;;;;;5089925;28;20055;-66
2023/01/01 06:16:21;;;;;;;5.15;3.20;;;12.20;99.90;;;;;;5079153;28;20069;-66
2023/01/01 06:18:47;;;;;;;5.63;3.65;;;12.10;99.90;;;;;;5089683;28;20052;-66
2023/01/01 06:21:16;;;;;;;5.85;3.90;;;12.10;99.90;;;;;;5091485;28;20020;-66
2023/01/01 06:23:42;;;;;;;7.15;3.78;;;12.00;99.90;;;;;;5088664;28;20044;-66
2023/01/01 06:26:17;;;;;;;8.00;3.95;;;12.00;99.90;;;;;;5089789;28;20027;-66
2023/01/01 06:28:43;;;;;;;7.20;3.05;;;12.10;99.90;;;;;;5070709;28;20020;-66
2023/01/01 06:31:11;;;;;;;5.53;3.10;;;12.10;99.90;;;;;;5090043;28;20020;-65
2023/01/01 06:33:37;;;;;;;5.53;3.13;;;12.10;99.90;;;;;;5086364;28;20084;-66
2023/01/01 06:36:04;;;;;;;5.70;2.90;;;12.10;99.90;;;;;;5089576;28;20107;-66
2023/01/01 06:38:31;;;;;;;6.38;2.97;;;12.10;99.90;;;;;;5089225;28;20443;-67
2023/01/01 06:41:00;;;;;;;5.10;3.05;;;12.10;99.90;;;;;;5089479;28;20028;-65
2023/01/01 06:43:26;;;;;;;4.45;2.78;;;12.10;99.90;;;;;;5089317;28;20035;-66
2023/01/01 06:46:13;;;;;;;5.88;3.00;;;12.00;99.90;;;;;;5089069;28;20024;-67
2023/01/01 06:48:38;;;;;;;5.32;2.85;;;12.00;99.90;;;;;;5084712;28;20060;-66
2023/01/01 06:51:10;;;;;;;7.07;3.15;;;12.00;99.90;;;;;;5089757;28;20440;-67
2023/01/01 06:53:35;;;;;;;6.68;2.72;;;11.90;99.90;;;;;;5086051;28;20043;-67
2023/01/01 06:56:02;;;;;;;8.43;2.88;;;11.90;99.90;;;;;;5090065;28;20357;-67
2023/01/01 06:58:28;;;;;;;5.38;2.40;;;12.00;99.90;;;;;;5088645;28;20026;-66
2023/01/01 07:00:53;;;;;;;6.70;2.60;;;12.00;99.90;;;;;;5088849;28;20031;-67
2023/01/01 07:03:19;;;;;;;7.00;3.00;;;12.00;99.90;;;;;;5088789;28;20020;-66
2023/01/01 07:05:44;;;;;;;7.20;3.10;;;12.10;99.90;;;;;;5086703;28;20028;-66
2023/01/01 07:08:10;;;;;;;6.28;2.88;;;12.10;99.90;;;;;;5088826;28;20077;-66
2023/01/01 07:10:36;;;;;;;4.55;2.60;;;12.10;99.90;;;;;;5088684;28;20030;-67
2023/01/01 07:13:01;;;;;;;4.85;2.60;;;12.10;99.90;;;;;;5087729;28;20035;-66
2023/01/01 07:15:27;;;;;;;6.57;2.95;;;12.20;99.90;;;;;;5086633;28;20381;-66
2023/01/01 07:17:52;;;;;;;4.03;2.33;;;12.20;99.90;;;;;;5088243;28;20028;-67
2023/01/01 07:20:18;;;;;;;4.22;2.70;;;12.30;99.90;;;;;;5089335;28;20046;-66
2023/01/01 07:22:44;;;;;;;6.88;2.85;;;12.30;99.90;;;;;;5091929;28;20076;-67
2023/01/01 07:25:14;;;;;;;5.82;3.03;;;12.40;99.90;;;;;;5094245;28;20036;-66
2023/01/01 07:27:39;;;;;;;5.53;2.72;;;12.50;99.90;;;;;;5093102;28;20077;-67
2023/01/01 07:30:05;;;;;;;4.97;2.70;;;12.50;99.90;;;;;;5094327;28;20032;-67
2023/01/01 07:32:31;;;;;;;7.20;2.88;;;12.50;99.90;;;;;;5093854;28;20031;-68
2023/01/01 07:34:56;;;;;;;7.45;2.70;;;12.50;99.90;;;;;;5092795;28;20029;-66
2023/01/01 07:37:25;;;;;;;8.80;2.53;;;12.60;99.90;;;;;;5094049;28;20036;-67
2023/01/01 07:39:51;;;;;;;5.80;2.58;;;12.60;99.90;;;;;;5092423;28;20036;-66
2023/01/01 07:42:17;;;;;;;5.80;2.53;;;12.60;99.90;;;;;;5093777;28;20533;-66
2023/01/01 07:44:42;;;;;;;4.78;2.72;;;12.70;99.90;;;;;;5092703;28;20107;-67
2023/01/01 07:47:21;;;;;;;9.15;2.70;;;12.70;99.90;;;;;;5093953;28;20105;-66
2023/01/01 07:49:46;;;;;;;2.97;2.40;;;12.70;99.90;;;;;;5092258;28;20497;-66
2023/01/01 07:52:12;;;;;;;4.60;2.33;;;12.60;99.90;;;;;;5093280;28;20032;-66
2023/01/01 07:54:38;;;;;;;5.50;2.08;;;12.60;99.90;;;;;;5092496;28;20035;-66
2023/01/01 07:57:03;;;;;;;6.30;2.60;;;12.60;99.90;;;;;;5093251;28;20389;-67
2023/01/01 07:59:29;;;;;;;4.10;2.30;;;12.70;99.90;;;;;;5093152;28;20032;-66
2023/01/01 08:01:54;;;;;;;6.53;2.15;;;12.70;99.90;;;;;;5092684;28;20096;-66
2023/01/01 08:04:20;;;;;;;4.68;2.47;;;12.60;99.90;;;;;;5093193;28;20485;-66
2023/01/01 08:06:45;;;;;;;4.95;2.33;;;12.60;99.90;;;;;;5092400;28;20036;-67
2023/01/01 08:09:11;;;;;;;4.07;2.30;;;12.60;99.90;;;;;;5093075;28;20032;-67
2023/01/01 08:11:36;;;;;;;3.13;2.03;;;12.50;99.90;;;;;;5087018;28;20115;-66
2023/01/01 08:14:02;;;;;;;8.18;2.97;;;12.40;99.90;;;;;;5087189;28;20371;-67
2023/01/01 08:16:28;;;;;;;6.00;2.88;;;12.30;99.90;;;;;;5084066;28;20102;-67
2023/01/01 08:18:53;;;;;;;6.07;3.00;;;12.20;99.90;;;;;;5086786;28;20059;-66
2023/01/01 08:21:19;;;;;;;4.97;2.22;;;12.10;99.90;;;;;;5090431;28;20074;-66
2023/01/01 08:23:44;;;;;;;5.60;2.70;;;12.00;99.90;;;;;;5091602;28;20128;-66
2023/01/01 08:26:25;;;;;;;5.60;2.75;;;11.90;99.90;;;;;;5092929;28;20032;-66
2023/01/01 08:28:50;;;;;;;6.40;2.70;;;11.80;99.90;;;;;;5092365;28;20040;-66
2023/01/01 08:31:16;;;;;;;4.18;2.97;;;11.70;99.90;;;;;;5092483;28;20024;-65
2023/01/01 08:33:42;;;;;;;3.40;2.40;;;11.70;99.90;;;;;;5090735;28;20112;-65
2023/01/01 08:36:11;;;;;;;4.97;2.85;;;11.70;99.90;;;;;;5092457;28;20089;-65
2023/01/01 08:38:37;;;;;;;5.57;2.65;;;11.80;99.90;;;;;;5091581;28;20076;-66
2023/01/01 08:41:03;;;;;;;5.97;2.55;;;11.80;99.90;;;;;;5092540;28;20036;-66
2023/01/01 08:43:28;;;;;;;6.25;3.28;;;11.80;99.90;;;;;;5092616;28;20031;-65
2023/01/01 08:45:54;;;;;;;5.30;2.70;;;11.80;99.90;;;;;;5091860;28;20027;-66
2023/01/01 08:48:19;;;;;;;4.50;2.55;;;11.90;99.90;;;;;;5077760;28;20032;-66
2023/01/01 08:50:54;;;;;;;4.82;2.90;;;11.90;99.90;;;;;;5091641;28;20069;-66
2023/01/01 08:53:20;;;;;;;3.85;2.35;;;12.00;99.90;;;;;;5088581;28;20084;-66
2023/01/01 08:55:55;;;;;;;4.10;2.42;;;12.00;99.90;;;;;;5090948;28;20118;-66
2023/01/01 08:58:21;;;;;;;4.53;2.70;;;12.10;99.90;;;;;;5090755;28;20084;-67
2023/01/01 09:00:46;;;;;;;4.18;2.67;;;12.20;99.90;;;;;;5090618;28;20119;-69
2023/01/01 09:03:12;;;;;;;5.88;3.20;;;12.30;99.90;;;;;;5091360;28;20469;-69
2023/01/01 09:05:37;;;;;;;6.07;3.08;;;12.40;99.90;;;;;;5087882;28;20041;-71
2023/01/01 09:08:03;;;;;;;3.53;2.63;;;12.50;99.90;;;;;;5090689;28;20066;-71
2023/01/01 09:10:29;;;;;;;5.43;2.70;;;12.70;99.90;;;;;;5091528;28;20103;-71
2023/01/01 09:12:55;;;;;;;4.93;2.55;;;12.80;99.90;;;;;;5087448;28;20222;-70
2023/01/01 09:15:20;;;;;;;5.55;3.10;;;12.90;99.90;;;;;;5070197;28;20405;-70
2023/01/01 09:17:46;;;;;;;3.92;2.22;;;13.00;99.90;;;;;;5090358;28;20473;-70
2023/01/01 09:20:11;;;;;;;4.97;2.45;;;13.10;99.90;;;;;;5091407;28;20115;-70
2023/01/01 09:22:37;;;;;;;4.80;2.85;;;13.10;99.90;;;;;;5084706;28;20412;-70
2023/01/01 09:25:03;;;;;;;4.50;2.35;;;13.20;99.90;;;;;;5091482;28;20040;-70
2023/01/01 09:27:28;;;;;;;4.22;2.72;;;13.20;99.90;;;;;;5085613;28;20103;-66
2023/01/01 09:29:54;;;;;;;5.88;2.10;;;13.30;99.90;;;;;;5098773;28;20093;-67
2023/01/01 09:32:19;;;;;;;5.55;2.58;;;13.30;99.90;;;;;;5091758;28;20039;-66
2023/01/01 09:34:45;;;;;;;6.07;2.60;;;13.30;99.90;;;;;;5093101;28;20032;-66
2023/01/01 09:37:11;;;;;;;7.63;2.65;;;13.30;99.90;;;;;;5089681;28;20081;-66
2023/01/01 09:39:36;;;;;;;4.25;3.00;;;13.40;99.90;;;;;;5092818;28;20028;-67
2023/01/01 09:42:26;;;;;;;4.63;2.45;;;13.50;99.90;;;;;;5088675;28;20099;-66
2023/01/01 09:44:57;;;;;;;3.15;2.10;;;13.50;99.90;;;;;;5083416;28;20171;-72
2023/01/01 09:47:38;;;;;;;5.80;2.72;;;13.60;99.90;;;;;;5078941;28;20572;-67
2023/01/01 09:50:18;;;;;;;4.25;2.28;;;13.70;99.90;;;;;;5093896;28;20031;-66
2023/01/01 09:52:57;;;;;;;3.10;2.25;;;13.80;99.90;;;;;;5088510;28;20063;-64
2023/01/01 09:55:28;;;;;;;5.40;2.78;;;13.80;99.90;;;;;;5089988;28;20032;-64
2023/01/01 09:57:55;;;;;;;3.10;2.38;;;13.90;99.90;;;;;;5090955;28;20020;-64
2023/01/01 10:00:20;;;;;;;5.10;2.58;;;14.00;99.90;;;;;;5098381;28;20128;-69
2023/01/01 10:03:13;;;;;;;3.95;2.55;;;14.00;99.90;;;;;;5084897;28;20120;-65
2023/01/01 10:06:01;;;;;;;3.20;2.42;;;14.10;99.90;;;;;;5089036;28;20107;-65
2023/01/01 10:08:35;;;;;;;5.25;2.50;;;14.20;99.90;;;;;;5085776;28;20469;-65
2023/01/01 10:11:23;;;;;;;7.57;2.97;;;14.30;99.90;;;;;;5093203;28;20493;-65
2023/01/01 10:13:50;;;;;;;4.40;2.58;;;14.50;99.90;;;;;;5081215;28;20028;-65
2023/01/01 10:16:23;;;;;;;4.32;2.15;;;14.60;99.90;;;;;;5091678;28;20028;-65
2023/01/01 10:18:53;;;;;;;7.03;2.70;;;14.70;99.90;;;;;;5093112;28;20103;-65
2023/01/01 10:21:31;;;;;;;6.85;2.70;;;14.90;99.90;;;;;;5084215;28;20024;-65
2023/01/01 10:24:04;;;;;;;3.90;2.28;;;15.00;99.90;;;;;;5092688;28;20511;-66
2023/01/01 10:26:33;;;;;;;4.30;2.35;;;15.20;99.90;;;;;;5089127;28;20111;-65
2023/01/01 10:29:08;;;;;;;3.92;2.38;;;15.30;99.90;;;;;;5089597;28;20160;-65
2023/01/01 10:31:37;;;;;;;4.88;2.60;;;15.40;99.90;;;;;;5082256;28;20056;-66
2023/01/01 10:34:21;;;;;;;2.85;1.88;;;15.50;99.90;;;;;;5087700;28;20376;-64
2023/01/01 10:36:46;;;;;;;5.55;2.75;;;15.60;99.90;;;;;;5090084;28;20036;-65
2023/01/01 10:39:15;;;;;;;10.02;4.72;;;15.60;99.90;;;;;;5090318;28;20107;-65
2023/01/01 10:41:42;;;;;;;4.68;2.63;;;15.70;99.90;;;;;;5090260;28;20036;-65
2023/01/01 10:44:10;;;;;;;4.60;2.60;;;15.70;99.90;;;;;;5090124;28;20473;-66
2023/01/01 10:46:40;;;;;;;12.73;9.25;;;15.80;99.90;;;;;;5084006;28;20020;-66
2023/01/01 10:49:11;;;;;;;6.15;2.50;;;15.90;99.90;;;;;;5088107;28;20093;-69
2023/01/01 10:51:45;;;;;;;9.48;3.30;;;15.90;99.90;;;;;;5090161;28;20454;-70
2023/01/01 10:54:39;;;;;;;9.07;2.63;;;16.00;99.90;;;;;;5090076;28;20035;-71
2023/01/01 10:57:29;;;;;;;4.50;2.40;;;16.10;99.90;;;;;;5089198;28;20797;-71
2023/01/01 11:00:20;;;;;;;6.55;2.53;;;16.20;99.90;;;;;;5089337;28;20413;-72
2023/01/01 11:02:45;;;;;;;3.30;2.03;;;16.20;99.90;;;;;;5071643;28;20044;-70
2023/01/01 11:05:15;;;;;;;6.90;2.60;;;16.20;99.90;;;;;;5084894;28;20028;-70
2023/01/01 11:07:42;;;;;;;5.40;2.22;;;16.30;99.90;;;;;;5089351;28;20067;-69
2023/01/01 11:10:17;;;;;;;4.32;3.08;;;16.30;99.90;;;;;;5090451;28;20028;-68
2023/01/01 11:12:43;;;;;;;4.43;2.00;;;16.40;99.90;;;;;;5083849;28;20032;-66
2023/01/01 11:15:25;;;;;;;6.68;2.60;;;16.40;99.90;;;;;;5088481;28;20485;-67
2023/01/01 11:17:51;;;;;;;6.35;2.30;;;16.40;99.90;;;;;;5086117;28;20223;-67
2023/01/01 11:20:19;;;;;;;4.85;2.30;;;16.50;99.90;;;;;;5088582;28;20525;-71
2023/01/01 11:22:50;;;;;;;5.93;2.33;;;16.50;99.90;;;;;;5088639;28;20048;-66
2023/01/01 11:25:33;;;;;;;5.20;2.42;;;16.60;99.90;;;;;;5089452;28;20107;-68
2023/01/01 11:28:20;;;;;;;4.10;2.20;;;16.60;99.90;;;;;;5088202;28;20024;-67
2023/01/01 11:31:08;;;;;;;5.40;2.45;;;16.70;99.90;;;;;;5088594;28;20436;-72
2023/01/01 11:33:38;;;;;;;4.18;2.70;;;16.70;99.90;;;;;;5086997;28;20064;-67
2023/01/01 11:36:05;;;;;;;4.97;2.10;;;16.80;99.90;;;;;;5088052;28;20507;-68
2023/01/01 11:38:30;;;;;;;6.57;2.90;;;16.90;99.90;;;;;;5084281;28;20024;-67
2023/01/01 11:41:03;;;;;;;4.45;2.08;;;17.00;99.90;;;;;;5089359;28;20373;-67
2023/01/01 11:43:35;;;;;;;7.10;2.17;;;17.00;99.90;;;;;;5089903;28;20032;-68
2023/01/01 11:46:06;;;;;;;7.53;2.33;;;17.00;99.90;;;;;;5090154;28;20024;-70
2023/01/01 11:48:33;;;;;;;5.72;2.38;;;17.10;99.90;;;;;;5089983;28;20016;-67
2023/01/01 11:51:05;;;;;;;3.55;1.95;;;17.10;99.90;;;;;;5072066;28;20024;-67
2023/01/01 11:53:41;;;;;;;3.78;2.20;;;17.10;99.90;;;;;;5089718;28;20028;-64
2023/01/01 11:56:16;;;;;;;6.93;2.35;;;17.10;99.90;;;;;;5090225;28;20418;-67
2023/01/01 11:58:47;;;;;;;4.88;2.22;;;17.10;99.90;;;;;;5088423;28;20024;-67
2023/01/01 12:01:40;;;;;;;5.43;2.63;;;17.10;99.90;;;;;;5090199;28;20024;-66
2023/01/01 12:04:16;;;;;;;5.88;2.67;;;17.10;99.90;;;;;;5089322;28;20031;-68
2023/01/01 12:07:05;;;;;;;8.73;2.25;;;17.10;99.90;;;;;;5090075;28;20496;-66
2023/01/01 12:10:01;;;;;;;5.63;2.00;;;17.10;99.90;;;;;;5093253;28;20106;-68
2023/01/01 12:12:32;;;;;;;6.28;2.40;;;17.10;99.90;;;;;;5078474;28;20028;-67
2023/01/01 12:15:03;;;;;;;7.05;2.88;;;17.10;99.90;;;;;;5092877;28;20481;-66
2023/01/01 12:17:40;;;;;;;6.45;2.70;;;17.20;99.90;;;;;;5093864;28;20491;-70
2023/01/01 12:20:25;;;;;;;5.28;2.75;;;17.20;99.90;;;;;;5093384;28;20035;-69
2023/01/01 12:22:54;;;;;;;5.82;2.30;;;17.30;99.90;;;;;;5091809;28;20047;-70
2023/01/01 12:25:20;;;;;;;4.82;1.70;;;17.30;99.70;;;;;;5093463;28;20032;-66
2023/01/01 12:28:09;;;;;;;3.08;2.08;;;17.40;99.30;;;;;;5092228;28;20059;-66
2023/01/01 12:31:00;;;;;;;7.07;2.30;;;17.40;99.40;;;;;;5079816;28;20040;-67
2023/01/01 12:33:50;;;;;;;8.05;2.40;;;17.50;99.30;;;;;;5051090;28;20044;-67
2023/01/01 12:36:46;;;;;;;8.55;2.08;;;17.50;99.00;;;;;;5093270;28;20020;-67
2023/01/01 12:39:44;;;;;;;4.38;1.85;;;17.50;98.80;;;;;;5092830;28;20039;-68
2023/01/01 12:42:13;;;;;;;6.25;1.98;;;17.60;98.60;;;;;;5063991;28;20037;-65
2023/01/01 12:45:00;;;;;;;5.13;2.28;;;17.60;98.60;;;;;;5092034;28;20016;-66
2023/01/01 12:47:33;;;;;;;5.47;2.13;;;17.50;98.70;;;;;;5080761;28;20033;-66
2023/01/01 12:50:20;;;;;;;6.57;2.28;;;17.60;98.50;;;;;;5092369;28;20402;-66
2023/01/01 12:52:58;;;;;;;4.22;1.83;;;17.60;98.40;;;;;;5091520;28;20538;-65
2023/01/01 12:55:34;;;;;;;7.55;1.77;;;17.60;98.40;;;;;;5092628;28;20439;-66
2023/01/01 12:58:07;;;;;;;6.05;2.35;;;17.50;98.70;;;;;;5091739;28;20024;-66
2023/01/01 13:00:36;;;;;;;4.97;2.20;;;17.50;98.70;;;;;;5092182;28;20378;-66
2023/01/01 13:03:13;;;;;;;4.72;1.70;;;17.60;98.50;;;;;;5086761;28;20603;-66
2023/01/01 13:05:42;;;;;;;6.32;1.92;;;17.60;98.40;;;;;;5091741;28;20027;-67
2023/01/01 13:08:08;;;;;;;4.20;2.13;;;17.50;98.20;;;;;;5092181;28;20016;-70
2023/01/01 13:10:38;;;;;;;6.18;2.13;;;17.60;98.20;;;;;;5092566;28;20031;-68